Terminal Aerodrome Forecast
Issued by NWS

Home | Current Version | Previous Version | Text Only | Print | Product List | Glossary On
Versions: 1 2 3 4 5 6 7 8 9 10 11 12 13 14 15 16 17 18 19 20 21
000
FTUS41 KCAR 251133
TAFFVE
TAF
KFVE 251133Z 2512/2612 29010G20KT P6SM SCT007 OVC015
     FM251400 30012G22KT P6SM OVC020
     FM252000 29025G35KT P6SM SCT025 OVC045
     FM260000 30020G30KT P6SM SCT040
     FM260600 30010G20KT P6SM SKC=

USA.gov is the U.S. government's official web portal to all federal, state and local government web resources and services.